Time;durP1;ratioP1;P1;durP2;ratioP2;P2;SDS_P1;SDS_P2;PMS_P1;PMS_P2;Temp;Humidity;BMP_temperature;BMP_pressure;BME280_temperature;BME280_humidity;BME280_pressure;Samples;Min_cycle;Max_cycle;Signal;HPM_P1;HPM_P2
2023/08/04 06:35:47;;;;;;;;;;;;;;;25.92;56.59;99884.22;6277978;22;19919;31
2023/08/04 06:38:45;;;;;;;;;;;;;;;25.95;56.48;99881.34;6191309;23;19920;-82
2023/08/04 06:41:36;;;;;;;;;;;;;;;26.03;56.53;99886.69;6190162;23;19908;-82
2023/08/04 06:44:28;;;;;;;;;;;;;;;26.09;56.12;99896.09;6193026;23;20239;-83
2023/08/04 06:47:23;;;;;;;;;;;;;;;26.11;56.53;99900.00;6191993;23;19927;-83
2023/08/04 06:50:15;;;;;;;;;;;;;;;26.16;56.62;99898.69;6194063;23;19907;-82
2023/08/04 06:53:04;;;;;;;;;;;;;;;26.18;56.98;99896.22;6194387;23;19908;-83
2023/08/04 06:55:56;;;;;;;;;;;;;;;26.20;56.99;99889.00;6193778;23;20335;-83
2023/08/04 06:58:48;;;;;;;;;;;;;;;26.22;56.83;99897.72;6194108;23;20258;-82
2023/08/04 07:01:40;;;;;;;;;;;;;;;26.21;57.23;99893.34;6194510;23;19908;-83
2023/08/04 07:04:32;;;;;;;;;;;;;;;26.28;56.90;99895.19;6194323;23;19908;-81
2023/08/04 07:07:24;;;;;;;;;;;;;;;26.31;56.85;99872.75;6194553;23;19908;-80
2023/08/04 07:10:16;;;;;;;;;;;;;;;26.33;56.83;99870.31;6195210;23;19908;-80
2023/08/04 07:13:07;;;;;;;;;;;;;;;26.37;56.72;99859.84;6195250;23;19908;-80
2023/08/04 07:15:57;;;;;;;;;;;;;;;26.35;56.49;99856.72;6194633;23;19916;-78
2023/08/04 07:18:46;;;;;;;;;;;;;;;26.38;56.53;99855.84;6195001;23;19916;-81
2023/08/04 07:21:38;;;;;;;;;;;;;;;26.41;56.34;99842.25;6195519;23;19908;-81
2023/08/04 07:24:28;;;;;;;;;;;;;;;26.42;55.96;99843.78;6195288;23;19908;-80
2023/08/04 07:27:20;;;;;;;;;;;;;;;26.44;55.30;99841.34;6194660;23;19963;-81
2023/08/04 07:30:13;;;;;;;;;;;;;;;26.49;55.81;99840.78;6185297;23;19917;-80
2023/08/04 07:33:05;;;;;;;;;;;;;;;26.49;56.83;99829.63;6195166;23;19908;-78
2023/08/04 07:35:59;;;;;;;;;;;;;;;26.48;57.00;99808.53;6195704;23;19912;-80
2023/08/04 07:38:50;;;;;;;;;;;;;;;26.51;57.04;99819.63;6194985;23;19912;-79
2023/08/04 07:41:42;;;;;;;;;;;;;;;26.51;57.22;99819.63;6196332;23;20323;-79
2023/08/04 07:44:35;;;;;;;;;;;;;;;26.51;57.21;99814.03;6196464;23;19908;-79
2023/08/04 07:47:27;;;;;;;;;;;;;;;26.54;56.89;99801.97;6196137;23;20247;-79
2023/08/04 07:50:18;;;;;;;;;;;;;;;26.56;57.11;99785.59;6196503;23;19908;-79
2023/08/04 07:53:08;;;;;;;;;;;;;;;26.59;57.04;99786.69;6197025;23;19908;-78
2023/08/04 07:56:00;;;;;;;;;;;;;;;26.59;57.12;99778.31;6195132;23;20254;-80
2023/08/04 07:58:52;;;;;;;;;;;;;;;26.60;56.90;99783.47;6196361;23;19904;-82
2023/08/04 08:01:44;;;;;;;;;;;;;;;26.61;56.95;99785.03;6196547;23;20327;-82
2023/08/04 08:04:36;;;;;;;;;;;;;;;26.62;56.93;99799.72;6196837;23;20320;-82
2023/08/04 08:07:26;;;;;;;;;;;;;;;26.62;56.85;99803.31;6196286;23;20323;-81
2023/08/04 08:10:18;;;;;;;;;;;;;;;26.63;56.91;99798.50;6196246;23;19912;-82
2023/08/04 08:13:07;;;;;;;;;;;;;;;26.64;57.21;99794.50;6195589;23;19916;-82
2023/08/04 08:15:56;;;;;;;;;;;;;;;26.66;56.82;99784.47;6195434;23;20250;-83
2023/08/04 08:18:46;;;;;;;;;;;;;;;26.68;57.11;99781.22;6196099;23;19908;-81
2023/08/04 08:21:36;;;;;;;;;;;;;;;26.69;57.14;99797.50;6193130;23;19912;-81
2023/08/04 08:24:27;;;;;;;;;;;;;;;26.71;56.84;99799.84;6195605;23;19908;-84
2023/08/04 08:27:19;;;;;;;;;;;;;;;26.72;56.84;99791.03;6193119;23;19916;-82
2023/08/04 08:30:08;;;;;;;;;;;;;;;26.73;56.84;99787.00;6196162;23;19908;-84
2023/08/04 08:33:01;;;;;;;;;;;;;;;26.75;56.58;99792.94;6196126;23;20247;-84
2023/08/04 08:35:52;;;;;;;;;;;;;;;26.75;56.69;99801.31;6194455;23;19939;-82
2023/08/04 08:38:44;;;;;;;;;;;;;;;26.79;56.29;99817.91;6196421;23;20327;-84
2023/08/04 08:41:36;;;;;;;;;;;;;;;26.77;55.53;99840.69;6194650;23;19908;-84
2023/08/04 08:44:28;;;;;;;;;;;;;;;26.82;55.68;99858.88;6195406;23;19908;-83
2023/08/04 08:47:20;;;;;;;;;;;;;;;26.83;56.08;99869.59;6195343;23;19916;-83
2023/08/04 08:50:13;;;;;;;;;;;;;;;26.83;56.18;99857.66;6199466;23;19908;-83
2023/08/04 08:53:10;;;;;;;;;;;;;;;26.83;55.20;99852.06;6201314;23;19908;-85
2023/08/04 08:56:03;;;;;;;;;;;;;;;26.83;55.12;99857.66;6203093;23;20250;-84
2023/08/04 08:58:55;;;;;;;;;;;;;;;26.83;54.78;99852.06;6200399;23;19904;-83
2023/08/04 09:01:48;;;;;;;;;;;;;;;26.83;55.34;99836.09;6196466;23;19908;-81
2023/08/04 09:04:39;;;;;;;;;;;;;;;26.85;56.34;99821.72;6195239;23;20394;-83
2023/08/04 09:07:32;;;;;;;;;;;;;;;26.87;56.39;99821.31;6196939;23;20331;-85
2023/08/04 09:10:21;;;;;;;;;;;;;;;26.87;56.59;99835.25;6197521;23;19912;-85
2023/08/04 09:13:11;;;;;;;;;;;;;;;26.89;56.47;99838.38;6197692;23;19908;-84
2023/08/04 09:16:00;;;;;;;;;;;;;;;26.90;56.46;99846.31;6197805;23;19913;-83
2023/08/04 09:18:48;;;;;;;;;;;;;;;26.90;56.44;99846.31;6197829;23;19912;-85
2023/08/04 09:21:40;;;;;;;;;;;;;;;26.91;56.65;99850.66;6196245;23;19912;-83
2023/08/04 09:24:32;;;;;;;;;;;;;;;26.93;56.39;99842.59;6196908;23;19908;-86
2023/08/04 09:27:35;;;;;;;;;;;;;;;26.93;56.48;99845.41;6195540;23;19912;-84
2023/08/04 09:30:24;;;;;;;;;;;;;;;26.95;56.55;99851.31;6195475;23;19908;-83
2023/08/04 09:33:24;;;;;;;;;;;;;;;26.94;56.54;99863.69;6195041;23;20327;-84
2023/08/04 09:36:19;;;;;;;;;;;;;;;26.95;57.01;99865.28;6195546;23;19912;-84
2023/08/04 09:39:11;;;;;;;;;;;;;;;26.96;56.68;99878.00;6194909;23;19908;-84
2023/08/04 09:42:03;;;;;;;;;;;;;;;26.94;56.73;99879.66;6196062;23;19909;-82
2023/08/04 09:44:56;;;;;;;;;;;;;;;26.89;56.99;99892.16;6196316;23;19908;-82
2023/08/04 09:47:51;;;;;;;;;;;;;;;26.91;57.30;99895.31;6195360;23;19912;-82
2023/08/04 09:50:43;;;;;;;;;;;;;;;26.90;57.41;99890.94;6196224;23;19912;-82
2023/08/04 09:53:34;;;;;;;;;;;;;;;26.95;57.12;99897.97;6196493;23;20247;-82
2023/08/04 09:56:28;;;;;;;;;;;;;;;26.93;57.27;99901.22;6198554;23;20271;-83
2023/08/04 09:59:20;;;;;;;;;;;;;;;26.93;57.25;99912.38;6195804;23;19911;-83
2023/08/04 10:02:12;;;;;;;;;;;;;;;26.93;57.55;99923.53;6195645;23;19908;-83
2023/08/04 10:05:05;;;;;;;;;;;;;;;26.94;57.53;99930.69;6195550;23;19908;-83
2023/08/04 10:07:57;;;;;;;;;;;;;;;26.94;57.31;99919.53;6195320;23;20327;-83
2023/08/04 10:10:44;;;;;;;;;;;;;;;26.96;57.32;99930.25;6196111;23;19911;-81
2023/08/04 10:13:37;;;;;;;;;;;;;;;26.98;57.24;99942.50;6195681;23;19908;-81
2023/08/04 10:16:30;;;;;;;;;;;;;;;26.99;57.40;99946.09;6195470;23;19912;-81
2023/08/04 10:19:18;;;;;;;;;;;;;;;27.01;57.36;99944.44;6195973;23;19908;-83
2023/08/04 10:22:13;;;;;;;;;;;;;;;27.01;57.05;99943.63;6195510;23;20269;-83
2023/08/04 10:25:13;;;;;;;;;;;;;;;27.03;57.43;99941.16;6195456;23;19908;-83
2023/08/04 10:28:05;;;;;;;;;;;;;;;27.04;57.13;99932.34;6194907;23;19912;-80
2023/08/04 10:31:04;;;;;;;;;;;;;;;27.06;55.76;99924.34;6195470;23;19909;-80
2023/08/04 10:34:12;;;;;;;;;;;;;;;27.07;56.46;99906.34;6195945;23;19908;-80
2023/08/04 10:37:14;;;;;;;;;;;;;;;27.10;56.83;99918.63;6195767;23;20334;-81
2023/08/04 10:40:01;;;;;;;;;;;;;;;27.10;56.99;99904.66;6193811;23;19908;-80
2023/08/04 10:43:04;;;;;;;;;;;;;;;27.11;56.77;99904.22;6195064;23;19908;-82
2023/08/04 10:46:05;;;;;;;;;;;;;;;27.13;56.88;99914.94;6195976;23;20238;-80
2023/08/04 10:48:57;;;;;;;;;;;;;;;27.14;56.87;99911.69;6200394;23;19904;-83
2023/08/04 10:51:49;;;;;;;;;;;;;;;27.14;57.12;99908.91;6195174;23;19908;-81
2023/08/04 10:54:38;;;;;;;;;;;;;;;27.15;57.03;99912.47;6193837;23;19908;-83
2023/08/04 10:57:30;;;;;;;;;;;;;;;27.16;56.92;99914.06;6193893;23;19920;-83
2023/08/04 11:00:22;;;;;;;;;;;;;;;27.16;56.41;99906.47;6193527;23;19908;-84
2023/08/04 11:03:20;;;;;;;;;;;;;;;27.29;56.14;99902.84;6194960;23;19912;-84
2023/08/04 11:06:14;;;;;;;;;;;;;;;27.29;55.97;99897.28;6195549;23;19908;-83
2023/08/04 11:09:02;;;;;;;;;;;;;;;27.29;56.63;99886.09;6197999;23;19908;-81
2023/08/04 11:11:47;;;;;;;;;;;;;;;27.24;56.66;99877.06;6198466;23;19908;-81
2023/08/04 11:14:39;;;;;;;;;;;;;;;27.27;56.80;99875.41;6197931;23;19908;-83
2023/08/04 11:17:26;;;;;;;;;;;;;;;27.30;56.67;99873.72;6198268;23;19912;-82
2023/08/04 11:20:16;;;;;;;;;;;;;;;27.30;55.90;99873.72;6196472;23;19909;-82
2023/08/04 11:23:05;;;;;;;;;;;;;;;27.31;56.46;99867.69;6196434;23;19908;-82
2023/08/04 11:25:52;;;;;;;;;;;;;;;27.34;55.98;99860.41;6195313;23;19908;-81
2023/08/04 11:28:42;;;;;;;;;;;;;;;27.33;54.71;99870.03;6196560;23;19904;-82
2023/08/04 11:31:30;;;;;;;;;;;;;;;27.33;56.36;99864.44;6195902;23;20320;-83
2023/08/04 11:34:17;;;;;;;;;;;;;;;27.32;56.48;99860.09;6195454;23;19908;-82
2023/08/04 11:37:08;;;;;;;;;;;;;;;27.36;55.87;99860.75;6196290;23;19912;-81
2023/08/04 11:40:00;;;;;;;;;;;;;;;27.36;55.36;99855.94;6197529;23;20323;-82
2023/08/04 11:42:52;;;;;;;;;;;;;;;27.37;55.67;99856.72;6197042;23;19908;-81
2023/08/04 11:45:48;;;;;;;;;;;;;;;27.27;52.65;99846.69;6197494;23;19908;-81
2023/08/04 11:48:42;;;;;;;;;;;;;;;27.17;49.83;99845.81;6196728;23;19904;-80
2023/08/04 11:51:54;;;;;;;;;;;;;;;27.18;49.47;99839.78;6198411;23;19908;-81
2023/08/04 11:55:13;;;;;;;;;;;;;;;27.15;48.86;99834.31;6196557;23;19908;-82
2023/08/04 11:58:04;;;;;;;;;;;;;;;27.26;47.27;99836.75;6192121;23;19912;-81
2023/08/04 12:00:56;;;;;;;;;;;;;;;27.21;47.00;99838.91;6198205;23;19908;-81
2023/08/04 12:03:47;;;;;;;;;;;;;;;27.10;47.99;99835.66;6197452;23;20255;-81
2023/08/04 12:06:39;;;;;;;;;;;;;;;27.22;46.63;99843.25;6195495;23;19907;-81
2023/08/04 12:09:31;;;;;;;;;;;;;;;27.15;48.36;99845.47;6197000;23;19908;-81
2023/08/04 12:12:36;;;;;;;;;;;;;;;27.09;47.72;99841.69;6199243;23;19908;-81
2023/08/04 12:15:28;;;;;;;;;;;;;;;27.30;47.42;99840.19;6195915;23;19927;-81
2023/08/04 12:18:27;;;;;;;;;;;;;;;27.34;46.40;99832.47;6198804;23;19920;-81
2023/08/04 12:21:19;;;;;;;;;;;;;;;27.35;47.33;99848.00;6198161;23;19915;-81
2023/08/04 12:24:11;;;;;;;;;;;;;;;27.39;46.16;99843.06;6196106;23;19908;-80
2023/08/04 12:27:03;;;;;;;;;;;;;;;27.41;46.71;99837.84;6195685;23;19908;-81
2023/08/04 12:29:55;;;;;;;;;;;;;;;27.41;46.48;99835.03;6195215;23;19908;-80
2023/08/04 12:32:40;;;;;;;;;;;;;;;27.38;45.80;99830.38;6193562;23;19908;-81
2023/08/04 12:35:29;;;;;;;;;;;;;;;27.48;44.63;99832.00;6194042;23;19908;-80
2023/08/04 12:38:18;;;;;;;;;;;;;;;27.61;45.57;99816.00;6194891;23;19912;-81
2023/08/04 12:41:08;;;;;;;;;;;;;;;27.70;43.99;99802.09;6194656;23;20324;-80
2023/08/04 12:43:57;;;;;;;;;;;;;;;27.76;43.98;99811.47;6195058;23;19908;-81
2023/08/04 12:46:49;;;;;;;;;;;;;;;27.86;43.03;99809.53;6195060;23;19908;-81
2023/08/04 12:49:36;;;;;;;;;;;;;;;27.92;41.82;99808.47;6194238;23;19908;-82
2023/08/04 12:52:29;;;;;;;;;;;;;;;28.06;39.41;99812.75;6194115;23;19908;-82
2023/08/04 12:55:19;;;;;;;;;;;;;;;28.07;42.02;99803.16;6195202;23;20239;-81
2023/08/04 12:58:08;;;;;;;;;;;;;;;28.12;40.02;99793.41;6193568;23;20343;-80
2023/08/04 13:01:00;;;;;;;;;;;;;;;28.21;40.08;99790.66;6194363;23;19973;-81
2023/08/04 13:03:52;;;;;;;;;;;;;;;28.35;42.61;99782.50;6193412;23;19908;-80
2023/08/04 13:06:43;;;;;;;;;;;;;;;28.23;42.72;99771.41;6194201;23;20243;-80
2023/08/04 13:09:35;;;;;;;;;;;;;;;28.15;42.32;99781.31;6196093;23;20246;-80
2023/08/04 13:12:25;;;;;;;;;;;;;;;28.36;41.07;99775.66;6203634;23;19908;-79
2023/08/04 13:15:17;;;;;;;;;;;;;;;28.47;38.82;99778.81;6200475;23;19908;-79
2023/08/04 13:18:08;;;;;;;;;;;;;;;28.50;39.71;99775.09;6201766;23;19912;-78
2023/08/04 13:21:04;;;;;;;;;;;;;;;28.50;38.97;99761.13;6202289;23;19912;-80
2023/08/04 13:23:56;;;;;;;;;;;;;;;28.45;37.95;99772.13;6202166;23;19915;-80
2023/08/04 13:26:48;;;;;;;;;;;;;;;28.27;36.87;99749.69;6201457;23;19908;-79
2023/08/04 13:29:39;;;;;;;;;;;;;;;28.42;38.07;99779.44;6200874;23;20323;-79
2023/08/04 13:32:31;;;;;;;;;;;;;;;28.45;37.92;99772.13;6201181;23;19908;-80
2023/08/04 13:35:23;;;;;;;;;;;;;;;28.45;38.80;99788.91;6200696;23;19908;-80
2023/08/04 13:38:15;;;;;;;;;;;;;;;28.44;38.60;99778.97;6200710;23;20336;-80
2023/08/04 13:41:04;;;;;;;;;;;;;;;28.40;38.41;99783.91;6200807;23;19908;-80
2023/08/04 13:43:56;;;;;;;;;;;;;;;28.28;38.26;99780.00;6198218;23;19908;-80
2023/08/04 13:46:48;;;;;;;;;;;;;;;28.30;39.30;99783.09;6199713;23;20351;-80
2023/08/04 13:49:35;;;;;;;;;;;;;;;28.31;39.72;99776.28;6198655;23;19908;-80
2023/08/04 13:52:27;;;;;;;;;;;;;;;28.32;40.56;99783.44;6199924;23;19908;-80
2023/08/04 13:55:19;;;;;;;;;;;;;;;28.37;40.01;99794.00;6199377;23;19908;-80
2023/08/04 13:58:11;;;;;;;;;;;;;;;28.39;40.87;99787.97;6198739;23;19912;-80
2023/08/04 14:01:03;;;;;;;;;;;;;;;28.36;40.36;99800.06;6199479;23;19908;-80
2023/08/04 14:03:55;;;;;;;;;;;;;;;28.37;41.84;99804.41;6198447;23;20319;-78
2023/08/04 14:06:47;;;;;;;;;;;;;;;28.26;40.41;99804.81;6198447;23;19908;-80
2023/08/04 14:09:38;;;;;;;;;;;;;;;28.27;41.65;99805.63;6198302;23;20250;-79
2023/08/04 14:12:31;;;;;;;;;;;;;;;28.30;41.89;99811.06;6198435;23;20247;-80
2023/08/04 14:15:23;;;;;;;;;;;;;;;28.36;41.09;99809.22;6198198;23;19908;-79
2023/08/04 14:18:15;;;;;;;;;;;;;;;28.34;41.46;99805.34;6197975;23;19912;-78
2023/08/04 14:21:08;;;;;;;;;;;;;;;28.34;42.59;99810.94;6197580;23;20327;-79
2023/08/04 14:23:59;;;;;;;;;;;;;;;28.35;41.42;99810.47;6197361;23;19912;-79
2023/08/04 14:26:51;;;;;;;;;;;;;;;28.39;41.89;99813.91;6196732;23;19908;-79
2023/08/04 14:29:44;;;;;;;;;;;;;;;28.38;41.02;99811.59;6197477;23;19908;-79
2023/08/04 14:32:36;;;;;;;;;;;;;;;28.37;42.98;99810.78;6195234;23;19908;-78
2023/08/04 14:35:25;;;;;;;;;;;;;;;28.41;43.20;99813.44;6195518;23;19908;-82
2023/08/04 14:38:17;;;;;;;;;;;;;;;28.31;43.41;99811.84;6196147;23;20423;-78
2023/08/04 14:41:09;;;;;;;;;;;;;;;28.37;44.11;99816.38;6194460;23;19908;-79
2023/08/04 14:43:59;;;;;;;;;;;;;;;28.50;43.81;99803.06;6193570;23;19912;-78
2023/08/04 14:46:51;;;;;;;;;;;;;;;28.45;42.58;99792.47;6195462;23;20262;-79
2023/08/04 14:49:43;;;;;;;;;;;;;;;28.49;41.90;99804.34;6195243;23;20247;-79
2023/08/04 14:52:30;;;;;;;;;;;;;;;28.49;42.54;99800.75;6194015;23;20331;-79
2023/08/04 14:55:19;;;;;;;;;;;;;;;28.39;42.31;99796.38;6196338;23;19908;-78
2023/08/04 14:58:11;;;;;;;;;;;;;;;28.76;42.51;99789.69;6193188;23;19920;-76
2023/08/04 15:01:10;;;;;;;;;;;;;;;29.12;42.24;99791.00;6193412;23;19908;-77
2023/08/04 15:04:02;;;;;;;;;;;;;;;28.86;42.99;99791.25;6193470;23;19912;-76
2023/08/04 15:06:54;;;;;;;;;;;;;;;28.72;43.93;99817.03;6193439;23;19908;-77
2023/08/04 15:09:46;;;;;;;;;;;;;;;27.45;47.63;99821.72;6194108;23;19908;-77
2023/08/04 15:12:38;;;;;;;7.13;1.53;;;;;;;26.37;52.68;99823.59;6197319;23;20385;-80
2023/08/04 15:15:32;;;;;;;5.28;2.08;;;;;;;26.63;52.05;99824.41;6195316;23;20024;-80
2023/08/04 15:18:26;;;;;;;7.32;2.53;;;;;;;26.82;51.52;99823.38;6195705;23;20487;-81
2023/08/04 15:21:16;;;;;;;9.10;1.58;;;;;;;27.14;51.06;99819.56;6195228;23;20041;-83
2023/08/04 15:24:11;;;;;;;8.80;1.85;;;;;;;26.77;52.48;99818.38;6194848;23;20352;-78
2023/08/04 15:27:03;;;;;;;7.15;1.38;;;;;;;26.35;53.79;99814.91;6196721;23;20024;-78
2023/08/04 15:29:57;;;;;;;4.78;1.33;;;;;;;26.95;51.97;99809.47;6197518;23;20019;-80
2023/08/04 15:32:47;;;;;;;10.88;1.50;;;;;;;27.32;51.11;99813.41;6199212;23;20474;-79
2023/08/04 15:35:39;;;;;;;13.05;1.35;;;;;;;27.17;51.76;99810.28;6195314;23;20471;-82
2023/08/04 15:38:34;;;;;;;4.43;1.10;;;;;;;26.23;54.33;99810.09;6198063;23;20028;-81
2023/08/04 15:41:28;;;;;;;8.30;1.50;;;;;;;26.29;54.25;99802.75;6194737;23;20339;-80
2023/08/04 15:44:22;;;;;;;16.00;1.27;;;;;;;26.48;53.84;99805.75;6194026;23;20467;-83
2023/08/04 15:47:15;;;;;;;5.25;1.95;;;;;;;26.34;53.84;99799.41;6193848;23;20036;-81
2023/08/04 15:50:08;;;;;;;10.02;1.67;;;;;;;25.97;55.84;99808.44;6195052;23;20643;-81
2023/08/04 15:53:00;;;;;;;4.53;1.30;;;;;;;25.60;56.06;99803.53;6195467;23;20020;-81
2023/08/04 15:55:55;;;;;;;10.48;1.85;;;;;;;25.95;55.53;99805.34;6195716;23;20020;-82
2023/08/04 15:58:47;;;;;;;;;;;;;;;25.96;55.49;99806.88;6196515;23;20020;-80
2023/08/04 16:01:39;;;;;;;;;;;;;;;25.90;56.08;99811.44;6195949;23;20348;-81
2023/08/04 16:04:31;;;;;;;;;;;;;;;25.67;56.72;99823.59;6204273;23;19916;-81
2023/08/04 16:07:23;;;;;;;;;;;;;;;25.80;56.43;99837.59;6204347;23;19912;-81
2023/08/04 16:10:15;;;;;;;;;;;;;;;25.61;57.12;99830.94;6204628;23;19912;-82
2023/08/04 16:13:07;;;;;;;;;;;;;;;25.44;57.67;99830.16;6204559;23;19912;-81
2023/08/04 16:16:06;;;;;;;;;;;;;;;25.25;58.39;99819.91;6202960;23;19912;-82
2023/08/04 16:18:58;;;;;;;;;;;;;;;25.30;58.41;99826.94;6203744;23;19916;-82
2023/08/04 16:21:50;;;;;;;;;;;;;;;25.24;58.66;99832.28;6203765;23;20336;-81
2023/08/04 16:24:42;;;;;;;;;;;;;;;25.21;58.84;99835.91;6202416;23;19912;-81
2023/08/04 16:27:34;;;;;;;;;;;;;;;25.14;59.14;99827.78;6201491;23;19913;-82
2023/08/04 16:30:26;;;;;;;;;;;;;;;25.11;59.40;99825.84;6202651;23;19912;-81
2023/08/04 16:33:18;;;;;;;;;;;;;;;24.97;59.71;99815.84;6202562;23;19912;-81
2023/08/04 16:36:10;;;;;;;;;;;;;;;24.88;58.75;99812.13;6201253;23;19912;-81
2023/08/04 16:39:02;;;;;;;;;;;;;;;24.93;58.00;99808.81;6201435;23;19916;-81
2023/08/04 16:41:54;;;;;;;;;;;;;;;24.89;57.99;99822.78;6201901;23;19912;-82
2023/08/04 16:44:44;;;;;;;;;;;;;;;24.89;58.54;99819.25;6201061;23;19912;-81
2023/08/04 16:47:33;;;;;;;;;;;;;;;24.96;58.41;99828.19;6199114;23;20255;-80
2023/08/04 16:50:26;;;;;;;;;;;;;;;24.96;58.51;99832.97;6200582;23;20243;-82
2023/08/04 16:53:18;;;;;;;;;;;;;;;24.94;58.04;99843.78;6202836;23;19912;-82
2023/08/04 16:56:10;;;;;;;;;;;;;;;24.87;58.55;99844.72;6198927;23;19912;-80
2023/08/04 16:59:02;;;;;;;;;;;;;;;24.99;58.15;99857.16;6198968;23;19924;-81
2023/08/04 17:01:51;;;;;;;;;;;;;;;24.88;58.39;99853.84;6204611;23;19916;-81
2023/08/04 17:04:43;;;;;;;;;;;;;;;24.64;59.33;99847.59;6199646;23;19912;-81
2023/08/04 17:07:30;;;;;;;;;;;;;;;24.65;59.32;99866.63;6198439;23;19912;-82
2023/08/04 17:10:22;;;;;;;;;;;;;;;24.67;59.10;99869.78;6203724;23;19916;-83
2023/08/04 17:13:14;;;;;;;;;;;;;;;24.65;58.89;99857.50;6201848;23;19912;-82
2023/08/04 17:16:15;;;;;;;;;;;;;;;24.65;57.93;99857.50;6198263;23;19916;-81
2023/08/04 17:19:08;;;;;;;;;;;;;;;25.06;58.82;99874.44;6198247;23;20255;-79
2023/08/04 17:21:59;;;;;;;;;;;;;;;25.23;59.68;99878.03;6197780;23;19912;-83
2023/08/04 17:24:51;;;;;;;;;;;;;;;25.36;57.87;99869.75;6198913;23;19920;-82
2023/08/04 17:27:43;;;;;;;;;;;;;;;25.20;56.81;99862.19;6199816;23;19912;-85
2023/08/04 17:30:30;;;;;;;;;;;;;;;24.84;57.22;99867.78;6201475;23;19912;-83
2023/08/04 17:33:22;;;;;;;;;;;;;;;24.95;57.37;99867.56;6197869;23;19916;-81
2023/08/04 17:36:11;;;;;;;;;;;;;;;24.55;55.19;99867.66;6195730;23;19912;-79
2023/08/04 17:39:01;;;;;;;;;;;;;;;24.67;57.10;99855.88;6195460;23;19916;-80
2023/08/04 17:41:50;;;;;;;;;;;;;;;25.18;56.44;99859.06;6195807;23;19912;-79
2023/08/04 17:44:40;;;;;;;;;;;;;;;24.68;54.22;99851.88;6195965;23;19916;-82
2023/08/04 17:47:32;;;;;;;;;;;;;;;24.56;55.06;99854.53;6193517;23;19920;-79
2023/08/04 17:50:24;;;;;;;;;;;;;;;24.92;56.07;99846.97;6194139;23;20343;-79
2023/08/04 17:53:13;;;;;;;;;;;;;;;24.84;54.41;99833.66;6194508;23;20457;-79
2023/08/04 17:56:02;;;;;;;;;;;;;;;24.73;54.96;99830.34;6194415;23;19912;-79
2023/08/04 17:58:52;;;;;;;;;;;;;;;24.27;55.34;99835.72;6195276;23;19916;-79
2023/08/04 18:01:44;;;;;;;;;;;;;;;23.83;56.56;99830.63;6195605;23;19912;-78
2023/08/04 18:04:37;;;;;;;;;;;;;;;23.80;57.50;99823.16;6195530;23;20243;-79
2023/08/04 18:07:28;;;;;;;;;;;;;;;24.21;55.56;99817.97;6194342;23;20344;-79
2023/08/04 18:10:19;;;;;;;;;;;;;;;24.33;56.06;99824.84;6194871;23;20247;-79
2023/08/04 18:13:11;;;;;;;;;;;;;;;24.30;56.77;99817.38;6194450;23;20328;-79
2023/08/04 18:16:01;;;;;;;;;;;;;;;23.71;56.41;99825.72;6193979;23;20605;-79
2023/08/04 18:18:53;;;;;;;;;;;;;;;23.68;57.69;99829.31;6190681;23;19920;-82
2023/08/04 18:21:43;;;;;;;;;;;;;;;23.47;58.44;99830.50;6197157;23;19914;-81
2023/08/04 18:24:33;;;;;;;;;;;;;;;22.94;59.62;99834.94;6196533;23;19932;-80
2023/08/04 18:27:25;;;;;;;;;;;;;;;22.96;58.79;99832.53;6195868;23;19912;-80
2023/08/04 18:30:17;;;;;;;;;;;;;;;22.68;59.51;99832.94;6198143;23;20335;-81
2023/08/04 18:33:06;;;;;;;;;;;;;;;23.29;56.80;99846.66;6196644;23;20251;-80
2023/08/04 18:35:55;;;;;;;;;;;;;;;22.92;55.80;99848.44;6194364;23;19913;-81
2023/08/04 18:38:48;;;;;;;;;;;;;;;22.73;55.41;99849.13;6195306;23;19934;-81
2023/08/04 18:41:40;;;;;;;;;;;;;;;22.89;54.42;99865.13;6197646;23;19912;-80
2023/08/04 18:44:32;;;;;;;;;;;;;;;22.58;54.77;99872.69;6197776;23;19916;-80
2023/08/04 18:47:21;;;;;;;;;;;;;;;22.94;54.73;99872.97;6192880;23;19916;-81
2023/08/04 18:50:13;;;;;;;;;;;;;;;22.79;55.66;99879.94;6194603;23;19916;-81
2023/08/04 18:53:02;;;;;;;;;;;;;;;22.98;54.97;99891.13;6195744;23;19912;-81
2023/08/04 18:55:54;;;;;;;;;;;;;;;22.64;56.66;99897.94;6195742;23;19912;-81
2023/08/04 18:58:39;;;;;;;;;;;;;;;22.67;56.44;99895.13;6195446;23;19912;-81
2023/08/04 19:01:31;;;;;;;;;;;;;;;22.87;57.09;99907.13;6194642;23;19912;-81
2023/08/04 19:04:23;;;;;;;;;;;;;;;23.44;55.84;99925.69;6195070;23;20328;-82
2023/08/04 19:07:15;;;;;;;;;;;;;;;23.54;54.93;99949.72;6194764;23;20328;-81
2023/08/04 19:10:07;;;;;;;;;;;;;;;23.18;55.45;99957.00;6194651;23;19912;-81
2023/08/04 19:12:54;;;;;;;;;;;;;;;22.73;55.50;99951.69;6194668;23;19912;-82
2023/08/04 19:15:46;;;;;;;;;;;;;;;22.71;54.20;99964.38;6194771;23;19912;-81
2023/08/04 19:18:35;;;;;;;;;;;;;;;22.82;56.43;99970.59;6195177;23;19916;-83
2023/08/04 19:21:27;;;;;;;;;;;;;;;22.39;54.84;99970.31;6195317;23;19913;-86
2023/08/04 19:24:17;;;;;;;;;;;;;;;22.24;56.77;99974.44;6192776;23;19912;-81
2023/08/04 19:27:09;;;;;;;;;;;;;;;22.66;56.57;99987.00;6193998;23;20340;-81
2023/08/04 19:29:58;;;;;;;;;;;;;;;22.43;59.04;99998.75;6195871;23;19912;-80
2023/08/04 19:32:48;;;;;;;;;;;;;;;22.14;59.61;100010.16;6195714;23;20512;-80
2023/08/04 19:35:40;;;;;;;;;;;;;;;22.85;59.47;100023.25;6196649;23;19912;-83
2023/08/04 19:38:32;;;;;;;;;;;;;;;23.38;58.75;100027.25;6195990;23;19920;-83
2023/08/04 19:41:21;;;;;;;;;;;;;;;22.86;60.30;100024.00;6195176;23;19913;-80
2023/08/04 19:44:08;;;;;;;;;;;;;;;22.88;59.91;100033.50;6195028;23;19912;-81
2023/08/04 19:46:58;;;;;;;;;;;;;;;20.82;67.36;100014.97;6195521;23;19912;-82
2023/08/04 19:49:50;;;;;;;13.77;2.10;;;;;;;21.02;68.83;99998.69;6195620;23;20774;-79
2023/08/04 19:52:41;;;;;;;2.63;0.90;;;;;;;21.84;66.33;100017.50;6196091;23;20028;-80
2023/08/04 19:55:35;;;;;;;3.70;1.13;;;;;;;21.92;66.67;100021.78;6195426;23;20020;-78
2023/08/04 19:58:29;;;;;;;2.25;1.10;;;;;;;22.67;64.25;100024.59;6194751;23;20367;-80
2023/08/04 20:01:19;;;;;;;1.65;0.75;;;;;;;23.42;60.93;100025.22;6196141;23;20026;-79
2023/08/04 20:04:14;;;;;;;8.95;1.50;;;;;;;23.86;59.54;100024.97;6195992;23;20028;-79
2023/08/04 20:07:04;;;;;;;2.05;0.85;;;;;;;24.07;58.96;100023.03;6195009;23;20039;-79
2023/08/04 20:09:59;;;;;;;3.70;1.27;;;;;;;24.19;58.98;100016.88;6196032;23;20052;-79
2023/08/04 20:12:54;;;;;;;1.95;1.02;;;;;;;24.36;58.77;100021.34;6196091;23;20020;-79
2023/08/04 20:15:46;;;;;;;2.38;1.17;;;;;;;24.60;58.54;100020.06;6196628;23;20020;-79
2023/08/04 20:18:41;;;;;;;49.90;2.90;;;;;;;24.80;58.31;100024.84;6196106;23;20024;-80
2023/08/04 20:21:31;;;;;;;7.05;1.42;;;;;;;24.82;58.40;100033.53;6198068;23;20027;-80
2023/08/04 20:24:24;;;;;;;5.47;1.30;;;;;;;25.02;57.98;100023.22;6200024;23;20073;-82
2023/08/04 20:27:14;;;;;;;18.88;2.35;;;;;;;25.04;57.90;100027.13;6198724;23;20482;-82
2023/08/04 20:30:10;;;;;;;4.38;1.15;;;;;;;24.81;58.87;100027.19;6199039;23;20028;-82
2023/08/04 20:33:04;;;;;;;4.55;1.10;;;;;;;24.95;58.65;100023.34;6199738;23;20024;-80
2023/08/04 20:36:04;;;;;;;6.43;1.05;;;;;;;25.08;57.99;100027.06;6199180;23;20359;-81
2023/08/04 20:38:58;;;;;;;4.95;1.60;;;;;;;25.16;57.61;100034.03;6199054;23;20040;-82
2023/08/04 20:41:51;;;;;;;3.47;1.00;;;;;;;25.19;57.84;100029.63;6199691;23;20025;-82
2023/08/04 20:44:45;;;;;;;7.00;1.30;;;;;;;25.20;57.63;100031.16;6199560;23;20024;-81
2023/08/04 20:47:37;;;;;;;2.22;0.93;;;;;;;25.17;57.62;100035.59;6198943;23;20028;-82
2023/08/04 20:50:32;;;;;;;3.05;1.65;;;;;;;25.28;57.29;100036.16;6199389;23;20024;-81
2023/08/04 20:53:25;;;;;;;5.60;1.35;;;;;;;25.28;57.51;100029.81;6200131;23;20024;-82
2023/08/04 20:56:19;;;;;;;3.33;1.17;;;;;;;25.39;57.68;100019.22;6199611;23;20076;-81
2023/08/04 20:59:11;;;;;;;;;;;;;;;25.40;57.88;100010.41;6200048;23;20025;-81
2023/08/04 21:02:04;;;;;;;2.75;1.42;;;;;;;25.25;57.08;100000.81;6199517;23;19908;-82
